createdAt,value
2023-01-04T00:01:15.399Z,85.25
2023-01-04T00:03:40.675Z,84.29
2023-01-04T00:06:07.266Z,85.12
2023-01-04T00:08:31.647Z,84.10
2023-01-04T00:10:55.147Z,85.15
2023-01-04T00:13:18.727Z,84.93
2023-01-04T00:15:42.408Z,85.33
2023-01-04T00:18:06.246Z,86.35
2023-01-04T00:20:31.219Z,86.71
2023-01-04T00:22:54.868Z,86.95
2023-01-04T00:25:18.504Z,87.03
2023-01-04T00:27:42.313Z,88.27
2023-01-04T00:30:07.011Z,87.63
2023-01-04T00:32:30.646Z,87.00
2023-01-04T00:34:54.148Z,87.55
2023-01-04T00:37:19.121Z,87.51
2023-01-04T00:39:42.641Z,87.65
2023-01-04T00:42:06.455Z,88.42
2023-01-04T00:44:30.689Z,88.28
2023-01-04T00:46:54.437Z,89.31
2023-01-04T00:49:17.972Z,88.92
2023-01-04T00:51:43.438Z,89.96
2023-01-04T00:54:14.359Z,91.01
2023-01-04T00:56:37.929Z,91.76
2023-01-04T00:59:03.857Z,92.07
2023-01-04T01:01:28.771Z,92.42
2023-01-04T01:03:55.160Z,91.43
2023-01-04T01:06:19.561Z,91.44
2023-01-04T01:08:43.072Z,91.21
2023-01-04T01:11:10.838Z,91.32
2023-01-04T01:13:35.152Z,91.41
2023-01-04T01:16:04.251Z,90.95
2023-01-04T01:18:27.824Z,91.83
2023-01-04T01:20:51.373Z,91.43
2023-01-04T01:23:16.983Z,90.95
2023-01-04T01:25:41.106Z,91.94
2023-01-04T01:28:06.428Z,91.82
2023-01-04T01:30:30.026Z,91.32
2023-01-04T01:32:53.597Z,93.07
2023-01-04T01:35:17.898Z,92.92
2023-01-04T01:37:41.443Z,91.98
2023-01-04T01:40:05.895Z,91.60
2023-01-04T01:42:30.525Z,90.95
2023-01-04T01:45:10.871Z,90.50
2023-01-04T01:47:42.190Z,90.66
2023-01-04T01:50:10.350Z,90.75
2023-01-04T01:52:37.752Z,90.85
2023-01-04T01:55:05.530Z,89.72
2023-01-04T01:57:33.669Z,89.79
2023-01-04T02:00:02.435Z,90.14
2023-01-04T02:02:37.352Z,90.49
2023-01-04T02:05:03.842Z,89.16
2023-01-04T02:07:29.515Z,88.94
2023-01-04T02:09:53.511Z,90.50
2023-01-04T02:12:17.032Z,90.46
2023-01-04T02:14:41.975Z,89.39
2023-01-04T02:17:15.530Z,89.76
2023-01-04T02:20:25.669Z,90.14
2023-01-04T02:23:46.231Z,89.10
2023-01-04T02:27:02.109Z,88.96
2023-01-04T02:30:17.137Z,88.41
2023-01-04T02:33:12.008Z,87.63
2023-01-04T02:35:45.267Z,89.91
2023-01-04T02:38:23.578Z,89.16
2023-01-04T02:40:57.169Z,88.33
2023-01-04T02:43:46.163Z,88.55
2023-01-04T02:46:16.830Z,88.96
2023-01-04T02:49:00.406Z,89.32
2023-01-04T02:51:32.393Z,88.39
2023-01-04T02:53:56.363Z,90.15
2023-01-04T02:56:35.641Z,89.12
2023-01-04T02:59:34.847Z,88.86
2023-01-04T03:02:33.081Z,89.33
2023-01-04T03:05:24.871Z,88.90
2023-01-04T03:07:56.140Z,90.92
2023-01-04T03:10:29.514Z,89.89
2023-01-04T03:13:05.926Z,88.94
2023-01-04T03:15:34.993Z,88.18
2023-01-04T03:18:02.288Z,89.40
2023-01-04T03:20:31.974Z,90.00
2023-01-04T03:23:16.997Z,89.46
2023-01-04T03:26:03.094Z,89.13
2023-01-04T03:28:48.706Z,89.55
2023-01-04T03:31:34.743Z,89.77
2023-01-04T03:34:16.553Z,89.62
2023-01-04T03:36:56.160Z,90.33
2023-01-04T03:39:48.340Z,89.66
2023-01-04T03:42:37.667Z,88.87
2023-01-04T03:45:30.224Z,88.59
2023-01-04T03:48:21.116Z,88.54
2023-01-04T03:50:50.527Z,88.40
2023-01-04T03:53:16.183Z,89.22
2023-01-04T03:55:42.386Z,88.79
2023-01-04T03:58:05.941Z,88.51
2023-01-04T04:00:29.830Z,88.72
2023-01-04T04:02:53.439Z,88.78
2023-01-04T04:05:38.439Z,89.25
2023-01-04T04:08:19.464Z,89.49
2023-01-04T04:10:44.446Z,89.53
2023-01-04T04:13:07.957Z,89.67
2023-01-04T04:15:31.706Z,90.53
2023-01-04T04:17:55.239Z,89.38
2023-01-04T04:20:19.138Z,90.98
2023-01-04T04:22:43.496Z,90.04
2023-01-04T04:25:08.204Z,89.12
2023-01-04T04:27:33.185Z,88.91
2023-01-04T04:29:56.745Z,88.91
2023-01-04T04:32:20.269Z,88.59
2023-01-04T04:34:43.928Z,87.45
2023-01-04T04:37:07.468Z,88.59
2023-01-04T04:39:31.080Z,89.43
2023-01-04T04:41:53.635Z,89.77
2023-01-04T04:44:20.870Z,90.81
2023-01-04T04:46:45.487Z,90.25
2023-01-04T04:49:10.235Z,90.70
2023-01-04T04:51:34.364Z,90.32
2023-01-04T04:53:57.974Z,90.38
2023-01-04T04:56:21.523Z,90.38
2023-01-04T04:58:45.221Z,90.05
2023-01-04T05:01:10.666Z,89.44
2023-01-04T05:03:34.543Z,90.09
2023-01-04T05:05:58.246Z,88.29
2023-01-04T05:08:21.840Z,88.35
2023-01-04T05:10:45.352Z,87.96
2023-01-04T05:13:10.779Z,88.19
2023-01-04T05:15:36.916Z,88.43
2023-01-04T05:18:02.116Z,87.70
2023-01-04T05:20:25.860Z,87.90
2023-01-04T05:22:49.504Z,87.80
2023-01-04T05:25:13.005Z,88.32
2023-01-04T05:27:36.635Z,87.59
2023-01-04T05:30:17.297Z,87.76
2023-01-04T05:32:40.932Z,86.74
2023-01-04T05:35:06.685Z,86.64
2023-01-04T05:37:30.265Z,86.46
2023-01-04T05:39:53.797Z,86.27
2023-01-04T05:42:26.334Z,86.60
2023-01-04T05:44:49.921Z,87.39
2023-01-04T05:47:15.349Z,86.95
2023-01-04T05:49:39.084Z,86.86
2023-01-04T05:52:03.992Z,87.04
2023-01-04T05:54:27.569Z,86.03
2023-01-04T05:56:51.087Z,86.39
2023-01-04T05:59:15.067Z,86.40
2023-01-04T06:01:38.599Z,85.14
2023-01-04T06:04:02.275Z,84.49
2023-01-04T06:06:25.850Z,85.32
2023-01-04T06:08:50.799Z,86.06
2023-01-04T06:11:14.289Z,85.44
2023-01-04T06:13:37.879Z,85.52
2023-01-04T06:16:01.380Z,86.01
2023-01-04T06:18:24.975Z,85.93
2023-01-04T06:20:48.491Z,86.27
2023-01-04T06:23:12.089Z,85.72
2023-01-04T06:25:37.040Z,85.58
2023-01-04T06:28:00.661Z,85.55
2023-01-04T06:30:24.143Z,85.57
2023-01-04T06:32:47.716Z,85.56
2023-01-04T06:35:11.410Z,85.06
2023-01-04T06:37:35.710Z,84.29
2023-01-04T06:39:59.231Z,84.31
2023-01-04T06:42:41.689Z,84.83
2023-01-04T06:45:06.263Z,85.08
2023-01-04T06:47:29.821Z,84.38
2023-01-04T06:49:53.707Z,83.77
2023-01-04T06:52:17.255Z,83.18
2023-01-04T06:54:40.875Z,84.15
2023-01-04T06:57:04.512Z,84.08
2023-01-04T06:59:29.468Z,84.21
2023-01-04T07:01:53.146Z,83.86
2023-01-04T07:04:16.866Z,84.38
2023-01-04T07:06:40.462Z,84.49
2023-01-04T07:09:03.996Z,85.55
2023-01-04T07:11:27.597Z,85.80
2023-01-04T07:13:52.819Z,86.06
2023-01-04T07:16:17.892Z,85.99
2023-01-04T07:18:41.608Z,86.13
2023-01-04T07:21:06.114Z,86.61
2023-01-04T07:23:29.711Z,88.15
2023-01-04T07:25:53.308Z,88.11
2023-01-04T07:28:37.965Z,87.01
2023-01-04T07:31:06.756Z,88.88
2023-01-04T07:33:31.703Z,89.07
2023-01-04T07:35:55.316Z,89.92
2023-01-04T07:38:18.838Z,89.74
2023-01-04T07:40:56.293Z,90.70
2023-01-04T07:43:27.514Z,91.47
2023-01-04T07:45:51.693Z,91.91
2023-01-04T07:48:15.222Z,92.72
2023-01-04T07:50:40.399Z,92.50
2023-01-04T07:53:03.961Z,93.60
2023-01-04T07:55:27.567Z,94.00
2023-01-04T07:57:51.073Z,94.25
2023-01-04T08:00:15.918Z,94.53
2023-01-04T08:02:39.707Z,95.02
2023-01-04T08:05:03.460Z,95.77
2023-01-04T08:07:28.642Z,96.40
2023-01-04T08:09:52.217Z,97.38
2023-01-04T08:12:15.711Z,97.30
2023-01-04T08:14:39.303Z,96.80
2023-01-04T08:17:02.817Z,95.76
2023-01-04T08:19:26.448Z,97.01
2023-01-04T08:21:50.637Z,95.57
2023-01-04T08:24:18.508Z,98.07
2023-01-04T08:26:42.155Z,97.79
2023-01-04T08:29:05.740Z,98.64
2023-01-04T08:31:32.636Z,98.72
2023-01-04T08:33:57.381Z,100.00
2023-01-04T08:36:27.091Z,100.00
2023-01-04T08:39:00.099Z,100.00
2023-01-04T08:44:10.668Z,99.92
2023-01-04T08:46:34.208Z,100.00
2023-01-04T08:48:57.793Z,100.00
2023-01-04T08:51:21.347Z,100.00
2023-01-04T08:53:46.030Z,100.00
2023-01-04T08:56:10.441Z,100.00
2023-01-04T08:58:36.795Z,100.00
2023-01-04T09:01:02.484Z,100.00
2023-01-04T09:03:26.146Z,100.00
2023-01-04T09:05:49.702Z,100.00
2023-01-04T09:08:13.356Z,100.00
2023-01-04T09:10:39.393Z,100.00
2023-01-04T09:13:03.005Z,100.00
2023-01-04T09:15:27.925Z,100.00
2023-01-04T09:18:29.525Z,100.00
2023-01-04T09:20:35.701Z,100.00
2023-01-04T09:22:59.826Z,100.00
2023-01-04T09:25:23.402Z,100.00
2023-01-04T09:27:46.943Z,100.00
2023-01-04T09:30:12.697Z,100.00
2023-01-04T09:32:38.056Z,100.00
2023-01-04T09:35:01.734Z,100.00
2023-01-04T09:37:25.320Z,100.00
2023-01-04T09:39:48.923Z,100.00
2023-01-04T09:42:22.894Z,100.00
2023-01-04T09:47:43.748Z,100.00
2023-01-04T09:50:15.018Z,100.00
2023-01-04T09:52:50.845Z,100.00
2023-01-04T09:55:37.987Z,100.00
2023-01-04T09:58:09.458Z,100.00
2023-01-04T10:00:43.383Z,100.00
2023-01-04T10:03:16.986Z,100.00
2023-01-04T10:05:42.193Z,100.00
2023-01-04T10:08:16.458Z,100.00
2023-01-04T10:10:53.455Z,100.00
2023-01-04T10:13:34.194Z,100.00
2023-01-04T10:16:09.108Z,100.00
2023-01-04T10:21:37.091Z,100.00
2023-01-04T10:24:17.337Z,100.00
2023-01-04T10:26:48.137Z,100.00
2023-01-04T10:29:39.019Z,100.00
2023-01-04T10:32:06.635Z,100.00
2023-01-04T10:34:37.499Z,100.00
2023-01-04T10:37:06.259Z,100.00
2023-01-04T10:39:33.852Z,100.00
2023-01-04T10:42:01.109Z,100.00
2023-01-04T10:44:33.401Z,100.00
2023-01-04T10:47:08.569Z,100.00
2023-01-04T10:49:44.000Z,100.00
2023-01-04T10:52:14.208Z,100.00
2023-01-04T10:54:44.057Z,100.00
2023-01-04T10:57:15.348Z,100.00
2023-01-04T10:59:47.241Z,100.00
2023-01-04T11:02:21.079Z,100.00
2023-01-04T11:04:54.044Z,100.00
2023-01-04T11:07:22.245Z,100.00
2023-01-04T11:09:52.273Z,100.00
2023-01-04T11:12:19.220Z,100.00
2023-01-04T11:14:43.124Z,100.00
2023-01-04T11:17:10.148Z,100.00
2023-01-04T11:19:35.127Z,100.00
2023-01-04T11:22:06.069Z,100.00
2023-01-04T11:24:33.705Z,100.00
2023-01-04T11:26:59.904Z,100.00
2023-01-04T11:29:34.240Z,100.00
2023-01-04T11:32:02.497Z,100.00
2023-01-04T11:34:49.857Z,100.00
2023-01-04T11:37:33.503Z,100.00
2023-01-04T11:40:28.485Z,100.00
2023-01-04T11:42:54.576Z,100.00
2023-01-04T11:45:25.684Z,100.00
2023-01-04T11:47:52.100Z,100.00
2023-01-04T11:50:41.112Z,100.00
2023-01-04T11:53:25.766Z,100.00
2023-01-04T11:55:49.379Z,100.00
2023-01-04T11:58:15.664Z,100.00
2023-01-04T12:00:39.886Z,100.00
2023-01-04T12:03:15.147Z,100.00
2023-01-04T12:05:39.381Z,100.00
2023-01-04T12:08:03.003Z,100.00
2023-01-04T12:10:29.979Z,100.00
2023-01-04T12:12:53.724Z,100.00
2023-01-04T12:15:23.027Z,100.00
2023-01-04T12:17:56.082Z,100.00
2023-01-04T12:20:21.808Z,100.00
2023-01-04T12:22:45.380Z,100.00
2023-01-04T12:25:26.953Z,100.00
2023-01-04T12:27:53.207Z,100.00
2023-01-04T12:30:39.995Z,100.00
2023-01-04T12:33:40.907Z,100.00
2023-01-04T12:36:08.136Z,100.00
2023-01-04T12:39:06.255Z,100.00
2023-01-04T12:42:21.958Z,100.00
2023-01-04T12:45:18.803Z,100.00
2023-01-04T12:48:01.918Z,100.00
2023-01-04T12:50:29.201Z,100.00
2023-01-04T12:55:59.536Z,100.00
2023-01-04T13:02:20.639Z,100.00
2023-01-04T13:04:45.123Z,100.00
2023-01-04T13:07:17.387Z,100.00
2023-01-04T13:09:48.569Z,100.00
2023-01-04T13:12:54.841Z,100.00
2023-01-04T13:15:24.893Z,100.00
2023-01-04T13:17:50.079Z,100.00
2023-01-04T13:20:22.869Z,100.00
2023-01-04T13:22:53.801Z,100.00
2023-01-04T13:25:19.661Z,100.00
2023-01-04T13:27:58.249Z,100.00
2023-01-04T13:30:36.358Z,100.00
2023-01-04T13:33:26.469Z,100.00
2023-01-04T13:36:03.864Z,100.00
2023-01-04T13:38:27.567Z,100.00
2023-01-04T13:40:51.248Z,100.00
2023-01-04T13:43:42.688Z,100.00
2023-01-04T13:46:17.243Z,100.00
2023-01-04T13:48:45.397Z,100.00
2023-01-04T13:51:18.220Z,100.00
2023-01-04T13:53:43.838Z,100.00
2023-01-04T13:56:15.851Z,100.00
2023-01-04T13:58:39.450Z,100.00
2023-01-04T14:01:08.614Z,100.00
2023-01-04T14:03:38.995Z,100.00
2023-01-04T14:06:19.701Z,100.00
2023-01-04T14:08:51.719Z,100.00
2023-01-04T14:11:41.565Z,100.00
2023-01-04T14:14:13.875Z,100.00
2023-01-04T14:16:37.553Z,100.00
2023-01-04T14:19:44.179Z,100.00
2023-01-04T14:22:41.133Z,100.00
2023-01-04T14:25:56.155Z,100.00
2023-01-04T14:28:38.859Z,100.00
2023-01-04T14:31:38.026Z,100.00
2023-01-04T14:34:15.673Z,100.00
2023-01-04T14:36:42.360Z,100.00
2023-01-04T14:39:31.486Z,100.00
2023-01-04T14:42:00.312Z,100.00
2023-01-04T14:44:28.296Z,100.00
2023-01-04T14:46:54.850Z,100.00
2023-01-04T14:49:19.939Z,100.00
2023-01-04T14:51:48.601Z,100.00
2023-01-04T14:54:18.895Z,100.00
2023-01-04T14:56:45.984Z,100.00
2023-01-04T14:59:10.316Z,100.00
2023-01-04T15:01:34.202Z,100.00
2023-01-04T15:03:58.102Z,100.00
2023-01-04T15:06:21.917Z,100.00
2023-01-04T15:08:47.020Z,100.00
2023-01-04T15:11:13.450Z,100.00
2023-01-04T15:13:39.768Z,100.00
2023-01-04T15:16:03.808Z,100.00
2023-01-04T15:18:28.060Z,100.00
2023-01-04T15:20:51.711Z,100.00
2023-01-04T15:23:15.249Z,100.00
2023-01-04T15:25:42.047Z,100.00
2023-01-04T15:28:05.886Z,100.00
2023-01-04T15:30:29.529Z,100.00
2023-01-04T15:32:53.076Z,100.00
2023-01-04T15:35:17.237Z,100.00
2023-01-04T15:37:40.758Z,100.00
2023-01-04T15:40:05.018Z,100.00
2023-01-04T15:42:49.433Z,100.00
2023-01-04T15:45:13.074Z,100.00
2023-01-04T15:47:36.620Z,100.00
2023-01-04T15:50:00.199Z,100.00
2023-01-04T15:52:24.235Z,100.00
2023-01-04T15:54:47.815Z,100.00
2023-01-04T15:57:11.342Z,100.00
2023-01-04T15:59:36.589Z,100.00
2023-01-04T16:02:00.142Z,100.00
2023-01-04T16:04:23.801Z,100.00
2023-01-04T16:06:47.331Z,100.00
2023-01-04T16:09:11.014Z,100.00
2023-01-04T16:11:34.512Z,100.00
2023-01-04T16:13:58.244Z,100.00
2023-01-04T16:16:27.574Z,100.00
2023-01-04T16:18:53.525Z,100.00
2023-01-04T16:21:18.104Z,100.00
2023-01-04T16:23:41.741Z,100.00
2023-01-04T16:26:08.155Z,100.00
2023-01-04T16:28:31.702Z,100.00
2023-01-04T16:30:57.066Z,100.00
2023-01-04T16:33:22.021Z,100.00
2023-01-04T16:35:45.554Z,100.00
2023-01-04T16:38:09.573Z,100.00
2023-01-04T16:40:33.071Z,100.00
2023-01-04T16:42:56.634Z,100.00
2023-01-04T16:45:20.330Z,100.00
2023-01-04T16:47:46.081Z,100.00
2023-01-04T16:50:13.548Z,100.00
2023-01-04T16:52:37.337Z,100.00
2023-01-04T16:55:00.853Z,100.00
2023-01-04T16:57:24.793Z,100.00
2023-01-04T16:59:49.108Z,100.00
2023-01-04T17:02:13.410Z,100.00
2023-01-04T17:04:37.252Z,100.00
2023-01-04T17:07:02.240Z,100.00
2023-01-04T17:09:25.979Z,100.00
2023-01-04T17:14:42.981Z,100.00
2023-01-04T17:17:06.571Z,100.00
2023-01-04T17:19:30.159Z,100.00
2023-01-04T17:21:53.744Z,100.00
2023-01-04T17:24:19.070Z,100.00
2023-01-04T17:26:43.575Z,100.00
2023-01-04T17:29:07.355Z,99.86
2023-01-04T17:31:34.720Z,99.13
2023-01-04T17:33:58.331Z,99.15
2023-01-04T17:36:23.274Z,98.36
2023-01-04T17:38:47.177Z,97.78
2023-01-04T17:41:14.648Z,98.28
2023-01-04T17:43:39.750Z,98.16
2023-01-04T17:46:03.920Z,97.66
2023-01-04T17:48:27.555Z,97.85
2023-01-04T17:50:51.063Z,98.39
2023-01-04T17:53:14.639Z,97.99
2023-01-04T17:55:38.147Z,98.65
2023-01-04T17:58:06.118Z,97.59
2023-01-04T18:00:33.458Z,96.99
2023-01-04T18:02:57.062Z,97.40
2023-01-04T18:05:20.695Z,97.63
2023-01-04T18:07:44.270Z,97.21
2023-01-04T18:10:20.541Z,97.52
2023-01-04T18:12:50.452Z,96.54
2023-01-04T18:15:15.429Z,96.02
2023-01-04T18:17:39.295Z,95.39
2023-01-04T18:20:02.843Z,95.69
2023-01-04T18:22:26.472Z,94.73
2023-01-04T18:24:50.034Z,94.52
2023-01-04T18:27:24.557Z,94.63
2023-01-04T18:29:49.463Z,95.42
2023-01-04T18:32:14.381Z,95.03
2023-01-04T18:34:37.991Z,94.53
2023-01-04T18:37:01.529Z,94.05
2023-01-04T18:39:25.415Z,93.14
2023-01-04T18:41:48.940Z,94.35
2023-01-04T18:44:32.107Z,93.26
2023-01-04T18:46:56.324Z,93.36
2023-01-04T18:49:21.233Z,93.63
2023-01-04T18:51:44.814Z,93.39
2023-01-04T18:54:08.309Z,92.66
2023-01-04T18:56:31.949Z,92.82
2023-01-04T18:58:55.464Z,93.15
2023-01-04T19:01:21.679Z,93.80
2023-01-04T19:03:48.992Z,93.56
2023-01-04T19:06:16.823Z,93.50
2023-01-04T19:08:40.918Z,92.98
2023-01-04T19:11:04.771Z,93.28
2023-01-04T19:13:28.314Z,93.54
2023-01-04T19:15:51.915Z,93.71
2023-01-04T19:18:16.676Z,92.44
2023-01-04T19:20:40.819Z,92.57
2023-01-04T19:23:05.785Z,92.22
2023-01-04T19:25:29.364Z,91.91
2023-01-04T19:27:52.876Z,92.41
2023-01-04T19:30:17.035Z,91.68
2023-01-04T19:32:40.536Z,92.58
2023-01-04T19:35:04.190Z,91.12
2023-01-04T19:37:27.712Z,92.08
2023-01-04T19:39:52.657Z,91.60
2023-01-04T19:42:16.217Z,92.28
2023-01-04T19:44:39.917Z,92.46
2023-01-04T19:47:03.472Z,91.75
2023-01-04T19:49:27.220Z,91.94
2023-01-04T19:51:51.754Z,93.12
2023-01-04T19:54:21.617Z,93.52
2023-01-04T19:56:49.821Z,94.22
2023-01-04T19:59:13.341Z,93.54
2023-01-04T20:01:37.237Z,95.07
2023-01-04T20:04:00.818Z,95.22
2023-01-04T20:06:24.565Z,93.91
2023-01-04T20:08:48.173Z,94.63
2023-01-04T20:11:12.296Z,95.13
2023-01-04T20:13:38.794Z,95.90
2023-01-04T20:16:04.724Z,98.72
2023-01-04T20:18:28.776Z,99.58
2023-01-04T20:20:53.187Z,99.77
2023-01-04T20:23:17.521Z,99.62
2023-01-04T20:25:41.922Z,100.00
2023-01-04T20:28:05.563Z,100.00
2023-01-04T20:30:30.568Z,99.82
2023-01-04T20:32:54.176Z,100.00
2023-01-04T20:35:19.986Z,100.00
2023-01-04T20:37:43.591Z,100.00
2023-01-04T20:40:09.237Z,99.51
2023-01-04T20:42:50.266Z,100.00
2023-01-04T20:45:13.836Z,100.00
2023-01-04T20:47:38.765Z,99.75
2023-01-04T20:50:02.315Z,100.00
2023-01-04T20:52:25.877Z,100.00
2023-01-04T20:54:50.704Z,100.00
2023-01-04T20:57:14.207Z,100.00
2023-01-04T20:59:37.812Z,99.97
2023-01-04T21:02:03.320Z,100.00
2023-01-04T21:04:28.404Z,100.00
2023-01-04T21:06:51.973Z,97.82
2023-01-04T21:09:15.604Z,97.87
2023-01-04T21:11:39.118Z,98.54
2023-01-04T21:14:03.138Z,99.01
2023-01-04T21:16:26.671Z,98.25
2023-01-04T21:18:50.548Z,98.62
2023-01-04T21:21:18.520Z,98.57
2023-01-04T21:23:43.365Z,99.99
2023-01-04T21:26:08.006Z,99.11
2023-01-04T21:28:31.624Z,99.28
2023-01-04T21:30:55.158Z,100.00
2023-01-04T21:33:19.469Z,100.00
2023-01-04T21:35:44.132Z,100.00
2023-01-04T21:38:10.520Z,100.00
2023-01-04T21:40:34.631Z,100.00
2023-01-04T21:42:58.558Z,99.01
2023-01-04T21:45:22.106Z,98.29
2023-01-04T21:47:45.677Z,98.88
2023-01-04T21:50:16.608Z,99.33
2023-01-04T21:52:40.641Z,100.00
2023-01-04T21:55:06.686Z,100.00
2023-01-04T21:57:30.498Z,100.00
2023-01-04T21:59:54.046Z,99.32
2023-01-04T22:02:19.912Z,100.00
2023-01-04T22:04:44.096Z,99.13
2023-01-04T22:07:07.658Z,98.59
2023-01-04T22:09:31.165Z,99.64
2023-01-04T22:11:56.154Z,100.00
2023-01-04T22:14:20.147Z,100.00
2023-01-04T22:16:43.788Z,100.00
2023-01-04T22:19:07.436Z,100.00
2023-01-04T22:21:30.995Z,100.00
2023-01-04T22:23:55.543Z,100.00
2023-01-04T22:26:19.269Z,98.69
2023-01-04T22:28:44.243Z,100.00
2023-01-04T22:31:10.435Z,99.88
2023-01-04T22:33:35.035Z,99.16
2023-01-04T22:35:58.632Z,100.00
2023-01-04T22:38:22.140Z,100.00
2023-01-04T22:40:45.855Z,99.57
2023-01-04T22:43:09.721Z,99.53
2023-01-04T22:45:34.853Z,99.73
2023-01-04T22:47:58.501Z,98.93
2023-01-04T22:50:22.261Z,98.75
2023-01-04T22:52:50.754Z,98.28
2023-01-04T22:55:14.740Z,98.70
2023-01-04T22:57:38.293Z,98.55
2023-01-04T23:00:01.872Z,97.44
2023-01-04T23:02:26.918Z,98.11
2023-01-04T23:04:50.564Z,98.29
2023-01-04T23:07:14.074Z,99.25
2023-01-04T23:09:37.678Z,98.94
2023-01-04T23:12:01.262Z,97.33
2023-01-04T23:14:24.951Z,97.23
2023-01-04T23:16:48.649Z,98.19
2023-01-04T23:19:15.094Z,97.59
2023-01-04T23:21:39.202Z,96.84
2023-01-04T23:24:03.847Z,96.95
2023-01-04T23:26:29.700Z,97.21
2023-01-04T23:28:53.855Z,96.19
2023-01-04T23:31:20.491Z,96.30
2023-01-04T23:33:44.241Z,96.58
2023-01-04T23:36:12.184Z,96.67
2023-01-04T23:38:36.144Z,96.65
2023-01-04T23:40:59.663Z,96.84
2023-01-04T23:43:23.233Z,96.18
2023-01-04T23:45:46.767Z,96.93
2023-01-04T23:48:10.294Z,97.44
2023-01-04T23:50:33.795Z,96.70
2023-01-04T23:52:58.802Z,96.41
2023-01-04T23:55:22.315Z,95.09
2023-01-04T23:57:45.857Z,95.39
